Time;durP1;ratioP1;P1;durP2;ratioP2;P2;SDS_P1;SDS_P2;PMS_P1;PMS_P2;Temp;Humidity;BMP_temperature;BMP_pressure;BME280_temperature;BME280_humidity;BME280_pressure;Samples;Min_cycle;Max_cycle;Signal;HPM_P1;HPM_P2
2022/12/19 00:01:18;;;;;;;;;28.33;23.67;;;;;7.91;100.00;101376.78;5059395;28;45891;-80
2022/12/19 00:03:47;;;;;;;;;32.00;26.67;;;;;7.99;100.00;101392.28;5059140;27;45462;-81
2022/12/19 00:06:13;;;;;;;;;26.33;24.00;;;;;8.03;100.00;101382.72;5059895;27;45505;-79
2022/12/19 00:08:44;;;;;;;;;24.67;23.33;;;;;8.04;100.00;101378.09;5052053;28;46145;-78
2022/12/19 00:11:11;;;;;;;;;28.67;26.33;;;;;7.97;100.00;101366.19;5049910;28;45549;-80
2022/12/19 00:13:38;;;;;;;;;20.00;18.67;;;;;8.04;100.00;101361.69;5056438;28;45419;-79
2022/12/19 00:16:18;;;;;;;;;27.33;27.00;;;;;8.04;100.00;101370.75;5063318;28;45725;-81
2022/12/19 00:18:45;;;;;;;;;27.00;24.33;;;;;8.07;100.00;101375.03;5054239;28;45923;-78
2022/12/19 00:21:14;;;;;;;;;31.00;25.33;;;;;8.09;100.00;101348.38;5045135;28;46359;-80
2022/12/19 00:23:39;;;;;;;;;27.33;23.67;;;;;8.08;100.00;101354.84;5049854;28;45465;-79
2022/12/19 00:26:16;;;;;;;;;29.67;25.67;;;;;8.08;100.00;101383.03;5053515;28;45695;-80
2022/12/19 00:28:44;;;;;;;;;23.33;23.33;;;;;8.08;100.00;101363.06;5057234;28;47250;-80
2022/12/19 00:31:11;;;;;;;;;26.67;23.33;;;;;8.05;100.00;101369.72;5061377;28;46004;-80
2022/12/19 00:33:37;;;;;;;;;28.67;22.67;;;;;8.09;100.00;101349.22;5054045;28;45474;-80
2022/12/19 00:36:05;;;;;;;;;26.00;22.33;;;;;7.97;100.00;101338.88;5060588;28;45750;-81
2022/12/19 00:38:32;;;;;;;;;28.33;23.67;;;;;8.01;100.00;101321.06;5046971;28;46374;-78
2022/12/19 00:41:12;;;;;;;;;22.33;18.67;;;;;8.00;100.00;101339.34;5054301;28;46719;-80
2022/12/19 00:43:38;;;;;;;;;23.33;20.67;;;;;8.15;100.00;101341.34;5049660;28;45787;-80
2022/12/19 00:46:06;;;;;;;;;23.33;21.33;;;;;8.23;100.00;101350.38;5052724;28;45659;-79
2022/12/19 00:48:32;;;;;;;;;21.00;21.00;;;;;8.24;100.00;101310.22;5049714;28;47009;-79
2022/12/19 00:51:02;;;;;;;;;21.33;17.67;;;;;8.35;100.00;101322.63;5048434;28;48391;-80
2022/12/19 00:53:28;;;;;;;;;24.33;18.00;;;;;8.42;100.00;101320.88;5052222;28;45412;-80
2022/12/19 00:55:54;;;;;;;;;23.67;19.33;;;;;8.40;100.00;101325.69;5056782;28;46023;-79
2022/12/19 00:58:19;;;;;;;;;24.00;19.67;;;;;8.42;100.00;101329.91;5052647;28;46012;-79
2022/12/19 01:00:45;;;;;;;;;21.67;17.67;;;;;8.47;100.00;101308.41;5053498;28;45636;-78
2022/12/19 01:03:10;;;;;;;;;24.33;18.67;;;;;8.54;100.00;101303.03;5054352;28;45381;-79
2022/12/19 01:05:36;;;;;;;;;22.00;18.33;;;;;8.57;100.00;101324.56;5054939;27;45684;-80
2022/12/19 01:08:01;;;;;;;;;21.00;18.00;;;;;8.59;100.00;101308.84;5055274;28;45747;-78
2022/12/19 01:10:27;;;;;;;;;22.33;20.00;;;;;8.62;100.00;101304.88;5048485;28;45637;-80
2022/12/19 01:12:52;;;;;;;;;23.00;20.00;;;;;8.69;100.00;101322.25;5052827;28;45776;-79
2022/12/19 01:15:19;;;;;;;;;19.67;19.67;;;;;8.66;100.00;101323.44;5052989;28;45676;-79
2022/12/19 01:17:47;;;;;;;;;22.00;19.33;;;;;8.56;100.00;101301.00;5054344;28;45618;-79
2022/12/19 01:20:15;;;;;;;;;27.00;21.67;;;;;8.60;100.00;101310.50;5063521;28;45600;-78
2022/12/19 01:22:41;;;;;;;;;22.00;18.67;;;;;8.64;100.00;101325.53;5060156;27;45349;-78
2022/12/19 01:25:06;;;;;;;;;22.33;18.00;;;;;8.70;100.00;101314.88;5055501;27;45303;-79
2022/12/19 01:27:32;;;;;;;;;19.00;19.00;;;;;8.65;100.00;101321.78;5047201;28;45449;-79
2022/12/19 01:29:57;;;;;;;;;25.00;17.33;;;;;8.67;100.00;101307.91;5049753;28;45639;-80
2022/12/19 01:32:23;;;;;;;;;24.00;22.67;;;;;8.71;100.00;101331.09;5052898;28;45394;-78
2022/12/19 01:34:48;;;;;;;;;18.67;16.33;;;;;8.87;100.00;101324.66;5050402;28;45859;-79
2022/12/19 01:37:14;;;;;;;;;20.33;17.33;;;;;8.81;100.00;101298.06;5049279;28;45633;-79
2022/12/19 01:39:39;;;;;;;;;21.33;15.00;;;;;8.92;100.00;101316.78;5055536;28;45563;-81
2022/12/19 01:42:13;;;;;;;;;22.33;19.00;;;;;8.83;100.00;101285.03;5049781;28;45735;-79
2022/12/19 01:44:38;;;;;;;;;19.00;15.00;;;;;9.02;100.00;101298.19;5053644;28;45383;-79
2022/12/19 01:47:04;;;;;;;;;21.33;20.33;;;;;8.96;100.00;101290.72;5053962;28;45930;-82
2022/12/19 01:49:33;;;;;;;;;11.33;10.33;;;;;9.07;100.00;101284.00;5062603;28;47398;-79
2022/12/19 01:52:03;;;;;;;;;16.00;15.00;;;;;9.14;100.00;101319.66;5055678;27;45353;-80
2022/12/19 01:54:33;;;;;;;;;17.00;13.00;;;;;9.15;100.00;101310.41;5052773;28;45428;-78
2022/12/19 01:57:01;;;;;;;;;16.67;15.33;;;;;9.26;100.00;101320.91;5048706;28;45441;-79
2022/12/19 01:59:35;;;;;;;;;20.00;18.00;;;;;9.35;100.00;101321.66;5052754;28;45660;-77
2022/12/19 02:02:36;;;;;;;;;19.67;13.67;;;;;9.39;100.00;101312.06;5040130;28;45720;-79
2022/12/19 02:05:03;;;;;;;;;16.33;15.00;;;;;9.43;100.00;101332.56;5047258;28;45765;-78
2022/12/19 02:07:31;;;;;;;;;19.67;18.00;;;;;9.51;100.00;101329.72;5043742;28;46705;-78
2022/12/19 02:09:57;;;;;;;;;17.33;14.33;;;;;9.56;100.00;101331.88;5058978;28;46658;-78
2022/12/19 02:12:25;;;;;;;;;21.00;15.33;;;;;9.44;100.00;101315.06;5062131;28;45819;-81
2022/12/19 02:14:51;;;;;;;;;18.67;15.67;;;;;9.55;100.00;101311.03;5062568;27;45413;-82
2022/12/19 02:17:37;;;;;;;;;18.67;13.67;;;;;9.48;100.00;101326.50;5069579;28;45765;-82
2022/12/19 02:20:03;;;;;;;;;20.67;15.67;;;;;9.54;100.00;101317.53;5068624;28;46032;-81
2022/12/19 02:22:55;;;;;;;;;16.33;15.33;;;;;9.47;100.00;101335.75;5056985;28;45670;-81
2022/12/19 02:26:16;;;;;;;;;18.33;15.00;;;;;9.47;100.00;101316.59;5067459;28;45596;-81
2022/12/19 02:28:55;;;;;;;;;17.33;14.00;;;;;9.40;100.00;101311.03;4975632;28;46583;-80
2022/12/19 02:31:29;;;;;;;;;20.33;15.67;;;;;9.21;100.00;101303.31;5061561;28;46189;-80
2022/12/19 02:34:04;;;;;;;;;16.33;15.00;;;;;9.19;100.00;101328.16;5053491;28;45710;-79
2022/12/19 02:36:54;;;;;;;;;21.00;17.00;;;;;9.11;100.00;101317.28;5055170;28;45799;-77
2022/12/19 02:39:35;;;;;;;;;19.67;17.67;;;;;8.98;100.00;101324.25;5056226;28;46343;-77
2022/12/19 02:42:04;;;;;;;;;21.00;18.00;;;;;8.90;100.00;101324.31;5055857;28;46609;-78
2022/12/19 02:44:51;;;;;;;;;19.33;17.33;;;;;8.84;100.00;101305.91;5060340;28;45551;-78
2022/12/19 02:47:18;;;;;;;;;23.00;20.00;;;;;8.78;100.00;101325.78;5054951;28;45595;-79
2022/12/19 02:49:44;;;;;;;;;16.67;13.67;;;;;8.71;100.00;101333.00;5054711;28;45543;-75
2022/12/19 02:52:20;;;;;;;;;19.33;16.33;;;;;8.51;100.00;101303.41;5054851;28;45380;-73
2022/12/19 02:54:48;;;;;;;;;19.33;18.00;;;;;8.63;100.00;101318.34;5058851;28;45712;-75
2022/12/19 02:57:32;;;;;;;;;15.00;12.67;;;;;8.56;100.00;101333.81;5053777;28;45452;-75
2022/12/19 03:00:14;;;;;;;;;17.67;16.33;;;;;8.63;100.00;101323.81;5045513;28;45585;-75
2022/12/19 03:02:55;;;;;;;;;24.67;20.67;;;;;8.60;100.00;101302.31;5054088;28;46003;-74
2022/12/19 03:05:32;;;;;;;;;17.33;16.00;;;;;8.42;100.00;101316.25;5054748;28;45621;-75
2022/12/19 03:08:23;;;;;;;;;18.33;16.00;;;;;8.41;100.00;101294.56;5044734;28;45569;-75
2022/12/19 03:10:53;;;;;;;;;20.00;16.33;;;;;8.29;100.00;101310.50;5058422;28;45495;-73
2022/12/19 03:13:25;;;;;;;;;16.33;15.67;;;;;8.25;100.00;101304.56;5046600;28;45406;-76
2022/12/19 03:15:52;;;;;;;;;21.00;17.00;;;;;8.29;100.00;101305.91;5053445;28;45669;-74
2022/12/19 03:18:18;;;;;;;;;19.00;14.33;;;;;8.27;100.00;101309.84;5053744;28;45304;-74
2022/12/19 03:21:09;;;;;;;;;19.00;18.33;;;;;8.23;100.00;101290.25;5052784;28;45439;-74
2022/12/19 03:23:36;;;;;;;;;17.00;12.67;;;;;8.21;100.00;101305.13;5046545;28;45390;-74
2022/12/19 03:26:07;;;;;;;;;19.67;14.00;;;;;8.22;100.00;101317.72;5054525;28;45744;-77
2022/12/19 03:28:51;;;;;;;;;19.67;19.00;;;;;8.06;100.00;101321.41;5052784;28;45849;-72
2022/12/19 03:31:20;;;;;;;;;24.67;21.67;;;;;7.92;100.00;101332.06;5063984;28;45712;-73
2022/12/19 03:33:51;;;;;;;;;18.00;15.33;;;;;7.77;100.00;101322.91;5054388;28;45686;-72
2022/12/19 03:36:21;;;;;;;;;25.33;18.00;;;;;7.66;100.00;101305.00;5046350;28;45659;-72
2022/12/19 03:38:48;;;;;;;;;14.00;12.33;;;;;7.57;100.00;101320.59;5053912;28;45593;-72
2022/12/19 03:43:07;;;;;;;;;16.00;15.00;;;;;7.58;100.00;101299.59;5054531;28;45498;-73
2022/12/19 03:44:05;;;;;;;;;14.00;12.67;;;;;7.62;100.00;101314.59;5054538;28;45816;-73
2022/12/19 03:46:37;;;;;;;;;18.67;16.33;;;;;7.70;100.00;101317.28;5052819;28;45745;-73
2022/12/19 03:49:02;;;;;;;;;16.33;14.67;;;;;7.73;100.00;101307.91;5052952;28;45972;-73
2022/12/19 03:51:46;;;;;;;;;17.67;14.67;;;;;7.80;100.00;101317.09;5048143;28;45829;-73
2022/12/19 03:54:19;;;;;;;;;19.00;18.00;;;;;7.87;100.00;101315.34;5059685;28;45400;-74
2022/12/19 03:57:00;;;;;;;;;18.00;16.33;;;;;7.86;100.00;101315.50;5062528;28;45453;-72
2022/12/19 03:59:38;;;;;;;;;17.67;16.00;;;;;7.98;100.00;101318.69;5052141;28;45699;-73
2022/12/19 04:02:04;;;;;;;;;20.67;14.67;;;;;8.04;100.00;101312.53;5052854;28;45436;-73
2022/12/19 04:04:33;;;;;;;;;15.00;15.00;;;;;8.11;100.00;101322.59;5052619;28;46512;-75
2022/12/19 04:07:01;;;;;;;;;16.00;12.67;;;;;8.19;100.00;101320.81;5052194;28;45696;-75
2022/12/19 04:09:27;;;;;;;;;16.33;16.00;;;;;8.26;100.00;101336.34;5052588;28;45468;-74
2022/12/19 04:12:07;;;;;;;;;14.67;13.67;;;;;8.30;100.00;101324.00;5054521;28;45435;-73
2022/12/19 04:14:36;;;;;;;;;15.33;15.33;;;;;8.38;100.00;101333.19;5055214;28;45857;-75
2022/12/19 04:17:19;;;;;;;;;16.00;14.33;;;;;8.43;100.00;101326.16;5055584;28;45319;-74
2022/12/19 04:19:48;;;;;;;;;14.00;14.00;;;;;8.50;100.00;101322.72;5060006;28;45515;-73
2022/12/19 04:22:21;;;;;;;;;20.67;15.00;;;;;8.56;100.00;101311.06;5054610;28;45810;-72
2022/12/19 04:24:49;;;;;;;;;17.33;14.33;;;;;8.58;100.00;101311.75;5055094;28;45742;-73
2022/12/19 04:27:15;;;;;;;;;19.67;17.67;;;;;8.62;100.00;101319.41;5054366;28;45516;-73
2022/12/19 04:29:42;;;;;;;;;20.00;16.00;;;;;8.68;100.00;101320.53;5053095;28;45777;-72
2022/12/19 04:32:09;;;;;;;;;16.00;14.00;;;;;8.74;100.00;101321.69;5050955;28;45504;-72
2022/12/19 04:34:35;;;;;;;;;18.33;16.00;;;;;8.76;100.00;101311.44;5057828;28;46131;-73
2022/12/19 04:37:01;;;;;;;;;14.00;12.33;;;;;8.78;100.00;101323.88;5051833;28;45635;-73
2022/12/19 04:39:27;;;;;;;;;14.00;14.00;;;;;8.83;100.00;101328.78;5052223;28;45719;-73
2022/12/19 04:41:54;;;;;;;;;19.00;15.33;;;;;8.81;100.00;101315.31;5046481;28;45606;-76
2022/12/19 04:44:20;;;;;;;;;14.67;14.67;;;;;8.83;100.00;101315.13;5057988;28;47835;-78
2022/12/19 04:46:46;;;;;;;;;14.33;13.00;;;;;8.90;100.00;101316.09;5049819;28;45322;-77
2022/12/19 04:49:11;;;;;;;;;18.67;12.00;;;;;8.90;100.00;101318.84;5057380;28;45699;-77
2022/12/19 04:51:36;;;;;;;;;20.67;16.00;;;;;8.97;100.00;101318.97;5052633;27;45589;-78
2022/12/19 04:54:02;;;;;;;;;15.67;15.67;;;;;8.98;100.00;101310.56;5059968;28;46201;-79
2022/12/19 04:56:27;;;;;;;;;16.00;12.67;;;;;9.08;100.00;101301.25;5053082;27;45448;-77
2022/12/19 04:58:57;;;;;;;;;14.00;12.67;;;;;9.10;100.00;101312.84;5051985;28;45656;-81
2022/12/19 05:01:23;;;;;;;;;16.00;13.33;;;;;9.15;100.00;101313.16;5051524;28;47098;-81
2022/12/19 05:03:48;;;;;;;;;10.67;10.67;;;;;9.12;100.00;101303.44;5058807;28;45495;-78
2022/12/19 05:06:14;;;;;;;;;19.00;18.00;;;;;9.18;100.00;101310.88;5049475;28;45805;-78
2022/12/19 05:08:41;;;;;;;;;15.67;13.33;;;;;9.07;100.00;101294.94;5051808;28;45812;-79
2022/12/19 05:11:08;;;;;;;;;19.33;14.33;;;;;9.10;100.00;101312.84;5058001;28;45511;-79
2022/12/19 05:13:34;;;;;;;;;10.67;7.67;;;;;8.98;100.00;101294.16;5052955;28;45447;-80
2022/12/19 05:16:04;;;;;;;;;14.67;13.67;;;;;9.01;100.00;101296.53;5057608;28;45930;-81
2022/12/19 05:18:30;;;;;;;;;15.00;15.00;;;;;9.01;100.00;101304.72;5055194;28;45793;-79
2022/12/19 05:20:56;;;;;;;;;13.33;10.00;;;;;9.02;100.00;101311.03;5053023;28;45688;-77
2022/12/19 05:23:22;;;;;;;;;12.33;10.33;;;;;9.02;100.00;101303.66;5052843;28;45808;-81
2022/12/19 05:25:48;;;;;;;;;16.00;13.00;;;;;9.00;100.00;101308.50;5052456;28;45483;-78
2022/12/19 05:28:18;;;;;;;;;14.67;13.67;;;;;9.01;100.00;101302.00;5052481;28;45459;-79
2022/12/19 05:30:44;;;;;;;;;13.00;10.00;;;;;9.07;100.00;101308.63;5055304;28;45405;-79
2022/12/19 05:33:09;;;;;;;;;11.67;9.67;;;;;9.10;100.00;101318.31;5052764;28;45467;-80
2022/12/19 05:35:35;;;;;;;;;15.33;11.33;;;;;9.04;100.00;101319.06;5054525;28;45308;-79
2022/12/19 05:38:01;;;;;;;;;13.67;11.33;;;;;9.12;100.00;101327.22;5055685;28;45519;-75
2022/12/19 05:40:26;;;;;;;;;15.67;14.00;;;;;9.20;100.00;101338.06;5054633;28;45565;-73
2022/12/19 05:42:52;;;;;;;;;16.67;12.67;;;;;9.25;100.00;101342.97;5045389;28;45400;-77
2022/12/19 05:45:17;;;;;;;;;13.67;12.33;;;;;9.31;100.00;101332.16;5055512;28;45903;-74
2022/12/19 05:47:46;;;;;;;;;18.33;14.33;;;;;9.35;100.00;101332.63;5054269;28;45420;-76
2022/12/19 05:50:13;;;;;;;;;15.67;12.00;;;;;9.38;100.00;101325.94;5047811;28;45959;-78
2022/12/19 05:52:39;;;;;;;;;13.67;12.00;;;;;9.35;100.00;101306.09;5052086;28;46374;-76
2022/12/19 05:55:06;;;;;;;;;12.00;11.67;;;;;9.45;100.00;101313.19;5050797;28;45419;-77
2022/12/19 05:57:32;;;;;;;;;13.00;11.67;;;;;9.53;100.00;101313.09;5049655;28;45703;-78
2022/12/19 05:59:57;;;;;;;;;10.67;9.67;;;;;9.54;100.00;101318.38;5044828;28;45584;-78
2022/12/19 06:02:23;;;;;;;;;11.67;10.67;;;;;9.55;100.00;101308.31;5049354;28;45799;-77
2022/12/19 06:04:49;;;;;;;;;12.00;10.00;;;;;9.56;100.00;101312.72;5051929;28;45545;-80
2022/12/19 06:07:14;;;;;;;;;17.00;10.67;;;;;9.60;100.00;101305.84;5051945;28;45809;-78
2022/12/19 06:09:40;;;;;;;;;10.33;10.33;;;;;9.68;100.00;101322.16;5052109;28;45371;-79
2022/12/19 06:12:05;;;;;;;;;7.00;5.33;;;;;9.66;100.00;101313.28;5051245;28;45975;-75
2022/12/19 06:14:31;;;;;;;;;9.67;9.67;;;;;9.74;100.00;101312.34;5050684;28;45861;-73
2022/12/19 06:16:57;;;;;;;;;10.33;10.33;;;;;9.78;100.00;101307.34;5050142;28;45640;-75
2022/12/19 06:19:23;;;;;;;;;10.00;10.00;;;;;9.86;100.00;101316.28;5051522;28;45634;-75
2022/12/19 06:21:48;;;;;;;;;11.00;9.67;;;;;9.99;100.00;101317.53;5064145;27;45671;-75
2022/12/19 06:24:13;;;;;;;;;10.33;10.33;;;;;10.02;100.00;101319.88;5061170;27;45300;-74
2022/12/19 06:26:39;;;;;;;;;8.00;7.00;;;;;9.97;100.00;101294.94;5053512;28;45699;-79
2022/12/19 06:29:04;;;;;;;;;11.00;9.00;;;;;10.15;100.00;101308.22;5053363;28;45885;-76
2022/12/19 06:31:30;;;;;;;;;11.67;8.67;;;;;10.22;100.00;101307.28;5053339;28;45838;-74
2022/12/19 06:33:56;;;;;;;;;11.00;11.00;;;;;10.22;100.00;101304.53;5053283;28;45794;-74
2022/12/19 06:36:24;;;;;;;;;5.00;5.00;;;;;10.27;100.00;101303.09;5053112;28;45796;-74
2022/12/19 06:38:51;;;;;;;;;9.00;8.33;;;;;10.29;100.00;101295.53;5042202;28;46048;-73
2022/12/19 06:44:05;;;;;;;;;11.00;11.00;;;;;10.48;100.00;101296.81;5046518;28;45780;-73
2022/12/19 06:46:31;;;;;;;;;13.00;10.00;;;;;10.46;100.00;101304.41;5046534;28;45681;-74
2022/12/19 06:48:57;;;;;;;;;9.33;9.33;;;;;10.40;100.00;101286.81;5052557;28;45781;-73
2022/12/19 06:51:22;;;;;;;;;9.33;8.33;;;;;10.47;100.00;101297.88;5049249;28;45920;-73
2022/12/19 06:53:48;;;;;;;;;13.00;13.00;;;;;10.46;100.00;101294.28;5045662;28;45866;-73
2022/12/19 06:56:15;;;;;;;;;9.67;9.67;;;;;10.45;100.00;101299.94;5047947;28;45800;-77
2022/12/19 06:58:41;;;;;;;;;8.33;8.33;;;;;10.51;100.00;101299.16;5045565;28;45613;-76
2022/12/19 07:01:07;;;;;;;;;11.33;9.00;;;;;10.55;100.00;101292.25;5044443;28;46070;-77
2022/12/19 07:03:40;;;;;;;;;9.00;9.00;;;;;10.54;100.00;101291.41;5046705;28;45895;-75
2022/12/19 07:06:06;;;;;;;;;10.00;8.67;;;;;10.58;100.00;101291.88;5050569;28;45411;-77
2022/12/19 07:08:32;;;;;;;;;11.00;9.33;;;;;10.53;100.00;101297.09;5050905;28;45677;-74
2022/12/19 07:10:58;;;;;;;;;10.67;10.33;;;;;10.49;100.00;101301.28;5044967;28;45603;-75
2022/12/19 07:13:23;;;;;;;;;9.33;8.00;;;;;10.40;100.00;101292.31;5043500;28;46128;-75
2022/12/19 07:15:51;;;;;;;;;8.67;7.00;;;;;10.36;100.00;101297.34;5046015;28;45731;-72
2022/12/19 07:18:17;;;;;;;;;10.67;9.00;;;;;10.39;100.00;101307.09;5050381;28;45848;-72
2022/12/19 07:20:45;;;;;;;;;8.00;7.00;;;;;10.41;100.00;101310.47;5047969;28;46969;-75
2022/12/19 07:23:14;;;;;;;;;8.00;8.00;;;;;10.36;100.00;101300.09;5045241;28;45820;-73
2022/12/19 07:25:40;;;;;;;;;12.67;10.33;;;;;10.36;100.00;101301.97;5048238;28;45544;-74
2022/12/19 07:28:07;;;;;;;;;11.33;10.00;;;;;10.40;100.00;101309.63;5050393;28;46070;-74
2022/12/19 07:30:33;;;;;;;;;11.00;10.00;;;;;10.24;100.00;101277.78;5049119;28;48557;-74
2022/12/19 07:32:58;;;;;;;;;12.33;11.00;;;;;10.29;100.00;101282.69;5047920;28;45852;-76
2022/12/19 07:35:24;;;;;;;;;11.67;9.00;;;;;10.32;100.00;101309.69;5050863;28;45432;-78
2022/12/19 07:37:50;;;;;;;;;18.33;12.00;;;;;10.32;100.00;101306.97;5046824;28;45481;-74
2022/12/19 07:40:16;;;;;;;;;8.67;8.33;;;;;10.18;100.00;101294.13;5051319;28;45881;-73
2022/12/19 07:42:42;;;;;;;;;10.67;10.00;;;;;10.22;100.00;101314.63;5048735;27;45703;-75
2022/12/19 07:45:07;;;;;;;;;7.67;7.67;;;;;10.20;100.00;101311.25;5050691;28;45650;-74
2022/12/19 07:47:33;;;;;;;;;10.33;10.33;;;;;10.19;100.00;101309.53;5048028;28;45791;-76
2022/12/19 07:49:58;;;;;;;;;12.33;9.67;;;;;10.21;100.00;101321.19;5050195;28;45823;-78
2022/12/19 07:52:24;;;;;;;;;9.67;9.67;;;;;10.19;100.00;101312.28;5050241;28;45427;-78
2022/12/19 07:54:50;;;;;;;;;12.33;9.00;;;;;10.22;100.00;101323.75;5053278;28;45804;-77
2022/12/19 07:57:16;;;;;;;;;11.00;10.00;;;;;10.22;100.00;101336.56;5047452;28;45973;-78
2022/12/19 07:59:42;;;;;;;;;10.00;9.00;;;;;10.28;100.00;101341.28;5046664;28;46214;-79
2022/12/19 08:02:08;;;;;;;;;9.67;9.67;;;;;10.23;100.00;101311.72;5047511;28;45845;-74
2022/12/19 08:04:33;;;;;;;;;8.67;8.67;;;;;10.37;100.00;101334.69;5045590;28;45706;-75
2022/12/19 08:06:59;;;;;;;;;10.00;10.00;;;;;10.42;100.00;101334.97;5040413;28;45929;-73
2022/12/19 08:09:26;;;;;;;;;11.00;9.33;;;;;10.53;100.00;101335.50;5050465;28;46241;-72
2022/12/19 08:11:52;;;;;;;;;11.00;10.00;;;;;10.56;100.00;101340.59;5069557;27;45541;-78
2022/12/19 08:14:19;;;;;;;;;10.00;9.00;;;;;10.62;100.00;101337.06;5048132;28;45539;-77
2022/12/19 08:16:44;;;;;;;;;12.33;10.33;;;;;10.60;100.00;101347.41;5048759;28;45733;-79
2022/12/19 08:19:10;;;;;;;;;8.00;8.00;;;;;10.66;100.00;101329.28;5051167;28;46054;-79
2022/12/19 08:21:35;;;;;;;;;10.67;10.67;;;;;10.70;100.00;101338.84;5049504;28;45457;-75
2022/12/19 08:24:01;;;;;;;;;11.00;11.00;;;;;10.74;100.00;101338.25;5049033;28;45772;-74
2022/12/19 08:26:26;;;;;;;;;13.33;10.00;;;;;10.78;100.00;101327.75;5049872;28;45790;-74
2022/12/19 08:28:54;;;;;;;;;16.33;13.67;;;;;10.86;100.00;101335.00;5051055;28;45789;-74
2022/12/19 08:31:23;;;;;;;;;17.00;13.67;;;;;10.85;100.00;101330.53;5047962;28;46743;-74
2022/12/19 08:33:49;;;;;;;;;16.33;15.33;;;;;10.81;100.00;101338.31;5043625;28;45549;-73
2022/12/19 08:36:19;;;;;;;;;17.00;16.33;;;;;10.76;100.00;101327.06;5049389;28;46843;-75
2022/12/19 08:38:46;;;;;;;;;15.00;14.00;;;;;10.86;100.00;101326.75;5048415;28;45736;-78
2022/12/19 08:41:12;;;;;;;;;16.00;15.67;;;;;10.88;100.00;101328.28;5053452;28;45460;-79
2022/12/19 08:43:38;;;;;;;;;19.67;16.33;;;;;10.97;100.00;101325.38;5051230;28;45744;-79
2022/12/19 08:46:04;;;;;;;;;18.33;13.67;;;;;10.95;100.00;101328.31;5052893;28;45426;-80
2022/12/19 08:48:35;;;;;;;;;16.33;11.33;;;;;11.05;100.00;101334.31;5051152;27;45858;-78
2022/12/19 08:51:06;;;;;;;;;18.67;15.00;;;;;11.16;100.00;101332.09;5056385;28;45894;-82
2022/12/19 08:53:34;;;;;;;;;14.00;12.67;;;;;11.21;100.00;101332.34;5060687;27;45748;-78
2022/12/19 08:56:04;;;;;;;;;9.67;9.67;;;;;11.34;100.00;101329.69;5045632;28;45675;-84
2022/12/19 08:58:34;;;;;;;;;12.67;10.00;;;;;11.43;100.00;101333.13;5053012;28;46257;-77
2022/12/19 09:01:07;;;;;;;;;11.67;10.00;;;;;11.39;100.00;101321.72;5052799;28;45674;-80
2022/12/19 09:03:34;;;;;;;;;13.67;11.33;;;;;11.59;100.00;101327.34;5060340;28;46359;-80
2022/12/19 09:06:02;;;;;;;;;10.00;8.00;;;;;11.64;100.00;101316.56;5065853;28;45500;-79
2022/12/19 09:08:33;;;;;;;;;10.67;8.00;;;;;11.64;100.00;101294.59;5062817;28;45463;-81
2022/12/19 09:11:03;;;;;;;;;10.00;10.00;;;;;11.94;100.00;101326.50;5068933;28;45366;-83
2022/12/19 09:13:29;;;;;;;;;15.67;11.00;;;;;12.02;100.00;101318.09;5058358;28;45436;-75
2022/12/19 09:16:12;;;;;;;;;10.33;8.67;;;;;12.11;100.00;101322.38;5052000;28;46969;-75
2022/12/19 09:18:39;;;;;;;;;11.33;10.67;;;;;12.25;100.00;101327.94;5051800;28;47754;-74
2022/12/19 09:21:05;;;;;;;;;10.33;10.33;;;;;12.35;100.00;101320.13;5052577;28;45824;-76
2022/12/19 09:23:30;;;;;;;;;10.33;10.33;;;;;12.40;100.00;101325.84;5053236;28;45342;-74
2022/12/19 09:26:10;;;;;;;;;9.67;9.67;;;;;12.46;100.00;101329.69;5050783;28;45724;-73
2022/12/19 09:28:46;;;;;;;;;13.00;11.33;;;;;12.31;100.00;101311.44;5050603;28;47397;-75
2022/12/19 09:31:14;;;;;;;;;10.00;10.00;;;;;12.46;100.00;101332.44;5046172;28;45654;-72
2022/12/19 09:33:40;;;;;;;;;12.33;8.00;;;;;12.48;100.00;101344.91;5053881;28;45383;-72
2022/12/19 09:36:07;;;;;;;;;12.00;11.00;;;;;12.51;100.00;101341.78;5051563;28;45843;-72
2022/12/19 09:38:33;;;;;;;;;13.00;9.67;;;;;12.53;100.00;101347.91;5054496;27;46675;-74
2022/12/19 09:41:07;;;;;;;;;12.67;12.00;;;;;12.47;100.00;101346.00;5050267;28;46869;-77
2022/12/19 09:43:54;;;;;;;;;13.33;11.67;;;;;12.54;100.00;101360.63;5047454;28;45694;-80
2022/12/19 09:46:24;;;;;;;;;5.33;4.67;;;;;12.49;100.00;101357.63;5046811;28;45884;-76
2022/12/19 09:48:54;;;;;;;;;8.67;8.67;;;;;12.41;100.00;101352.31;5049134;28;45704;-75
2022/12/19 09:51:35;;;;;;;;;13.33;12.67;;;;;12.30;100.00;101341.91;5043844;28;45926;-77
2022/12/19 09:54:15;;;;;;;;;13.67;12.33;;;;;12.45;100.00;101359.09;5049560;28;45504;-78
2022/12/19 09:56:43;;;;;;;;;10.67;8.33;;;;;12.41;100.00;101344.06;5050989;28;45666;-76
2022/12/19 09:59:17;;;;;;;;;10.33;9.00;;;;;12.34;100.00;101348.69;5050600;28;45461;-77
2022/12/19 10:01:53;;;;;;;;;11.00;10.00;;;;;12.26;100.00;101329.59;5050400;28;45840;-80
2022/12/19 10:04:18;;;;;;;;;10.00;10.00;;;;;12.29;100.00;101329.19;5044807;28;45456;-79
2022/12/19 10:06:44;;;;;;;;;9.67;8.67;;;;;12.41;100.00;101349.56;5049625;28;46197;-77
2022/12/19 10:09:18;;;;;;;;;8.00;8.00;;;;;12.33;100.00;101330.47;5042337;28;45904;-76
2022/12/19 10:11:55;;;;;;;;;11.67;9.67;;;;;12.45;100.00;101350.81;5041453;28;45522;-81
2022/12/19 10:14:43;;;;;;;;;12.67;10.33;;;;;12.42;100.00;101345.75;5057467;27;45889;-76
2022/12/19 10:17:41;;;;;;;;;10.00;10.00;;;;;12.51;100.00;101335.41;5052062;28;45473;-74
2022/12/19 10:20:29;;;;;;;;;9.00;8.00;;;;;12.42;100.00;101317.41;5027051;28;45795;-75
2022/12/19 10:23:19;;;;;;;;;9.67;9.67;;;;;12.63;100.00;101330.16;5057017;28;45322;-74
2022/12/19 10:25:59;;;;;;;;;8.67;8.67;;;;;12.71;100.00;101332.72;5052603;28;45682;-73
2022/12/19 10:28:33;;;;;;;;;10.00;9.00;;;;;12.77;100.00;101331.00;5052853;28;45373;-74
2022/12/19 10:31:01;;;;;;;;;8.00;8.00;;;;;12.79;100.00;101323.41;5053463;28;46615;-74
2022/12/19 10:33:34;;;;;;;;;9.33;8.67;;;;;12.97;100.00;101331.06;5056394;28;45438;-77
2022/12/19 10:36:03;;;;;;;;;15.33;14.33;;;;;12.97;100.00;101320.88;5052169;28;45594;-75
2022/12/19 10:38:52;;;;;;;;;7.67;6.67;;;;;12.93;100.00;101318.75;5051980;28;46869;-76
2022/12/19 10:41:27;;;;;;;;;9.33;9.33;;;;;13.02;100.00;101323.00;5058252;28;46065;-74
2022/12/19 10:44:06;;;;;;;;;10.67;10.67;;;;;13.14;100.00;101332.31;5049947;28;45759;-74
2022/12/19 10:46:46;;;;;;;;;12.33;11.33;;;;;13.24;100.00;101323.63;5047240;28;45784;-73
2022/12/19 10:49:23;;;;;;;;;17.33;11.67;;;;;13.25;100.00;101328.94;5053102;28;45958;-71
2022/12/19 10:51:57;;;;;;;;;16.33;12.67;;;;;13.31;100.00;101335.50;5056993;28;45637;-74
2022/12/19 10:54:24;;;;;;;;;10.00;9.00;;;;;13.34;100.00;101337.88;5060078;27;46628;-75
2022/12/19 10:56:50;;;;;;;;;10.00;10.00;;;;;13.34;100.00;101326.84;5042613;28;46486;-74
2022/12/19 10:59:18;;;;;;;;;13.00;11.67;;;;;13.38;100.00;101321.75;5043647;28;45545;-75
2022/12/19 11:01:44;;;;;;;;;9.00;9.00;;;;;13.36;100.00;101312.84;5046461;28;45639;-74
2022/12/19 11:04:35;;;;;;;;;13.67;12.00;;;;;13.26;100.00;101302.22;5047480;28;45433;-73
2022/12/19 11:07:18;;;;;;;;;13.33;9.33;;;;;13.29;100.00;101306.47;5049123;28;45955;-73
2022/12/19 11:09:46;;;;;;;;;14.33;12.00;;;;;13.34;100.00;101320.50;5058038;28;47098;-75
2022/12/19 11:12:17;;;;;;;;;13.00;12.33;;;;;13.39;100.00;101306.91;5048407;28;45741;-74
2022/12/19 11:15:13;;;;;;;;;11.67;10.33;;;;;13.42;100.00;101312.00;5045822;28;45383;-75
2022/12/19 11:17:39;;;;;;;;;9.00;8.33;;;;;13.46;100.00;101302.25;5041806;28;46084;-75
2022/12/19 11:20:12;;;;;;;;;8.67;8.67;;;;;13.40;100.00;101303.94;5051648;28;45635;-77
2022/12/19 11:22:37;;;;;;;;;12.67;10.67;;;;;13.33;100.00;101293.97;5052404;28;46774;-73
2022/12/19 11:25:04;;;;;;;;;7.67;7.67;;;;;13.38;100.00;101295.06;5052957;28;45386;-77